Time;durP1;ratioP1;P1;durP2;ratioP2;P2;SDS_P1;SDS_P2;PMS_P1;PMS_P2;Temp;Humidity;BMP_temperature;BMP_pressure;BME280_temperature;BME280_humidity;BME280_pressure;Samples;Min_cycle;Max_cycle;Signal;HPM_P1;HPM_P2
2021/05/02 02:21:06;;;;;;;70.63;64.23;;;8.00;99.90;;;;;;5971925;23;20505;-73
2021/05/02 02:23:35;;;;;;;76.43;69.73;;;7.90;99.90;;;;;;5049899;28;20498;-72
2021/05/02 02:26:14;;;;;;;70.43;64.33;;;7.90;99.90;;;;;;5051760;28;20451;-71
2021/05/02 02:28:41;;;;;;;73.33;66.97;;;7.90;99.90;;;;;;5051504;28;20670;-71
2021/05/02 02:31:11;;;;;;;76.27;69.27;;;7.80;99.90;;;;;;5051323;28;20450;-71
2021/05/02 02:33:40;;;;;;;70.80;63.87;;;7.80;99.90;;;;;;5051539;28;20460;-70
2021/05/02 02:36:09;;;;;;;77.13;70.30;;;7.80;99.90;;;;;;5051514;28;20483;-71
2021/05/02 02:38:36;;;;;;;73.33;66.50;;;7.80;99.90;;;;;;5051337;28;20452;-71
2021/05/02 02:41:04;;;;;;;76.30;69.40;;;7.80;99.90;;;;;;5051538;28;20452;-71
2021/05/02 02:43:31;;;;;;;74.57;67.63;;;7.90;99.90;;;;;;5051455;28;20483;-70
2021/05/02 02:46:00;;;;;;;72.40;65.37;;;7.90;99.90;;;;;;5051104;28;20455;-71
2021/05/02 02:48:29;;;;;;;71.90;65.37;;;7.90;99.90;;;;;;5051203;28;20451;-71
2021/05/02 02:50:57;;;;;;;70.53;64.10;;;7.90;99.90;;;;;;5051115;28;21180;-72
2021/05/02 02:53:28;;;;;;;75.37;68.30;;;7.90;99.90;;;;;;5051228;28;20460;-72
2021/05/02 02:56:02;;;;;;;71.27;64.80;;;7.90;99.90;;;;;;5051043;28;20715;-71
2021/05/02 02:58:33;;;;;;;73.60;66.70;;;7.80;99.90;;;;;;5051063;28;20463;-72
2021/05/02 03:01:02;;;;;;;72.77;65.57;;;7.80;99.90;;;;;;5051156;28;20452;-71
2021/05/02 03:03:31;;;;;;;71.60;64.73;;;7.80;99.90;;;;;;5051069;28;20490;-71
2021/05/02 03:06:00;;;;;;;71.40;64.90;;;7.80;99.90;;;;;;5050619;28;20479;-71
2021/05/02 03:08:30;;;;;;;76.33;68.83;;;7.80;99.90;;;;;;5050762;28;20495;-71
2021/05/02 03:10:57;;;;;;;70.27;63.70;;;7.70;99.90;;;;;;5050895;28;20803;-71
2021/05/02 03:13:24;;;;;;;69.93;63.70;;;7.70;99.90;;;;;;5050665;28;20448;-72
2021/05/02 03:15:51;;;;;;;69.07;62.70;;;7.70;99.90;;;;;;5050727;28;20840;-70
2021/05/02 03:18:23;;;;;;;72.30;66.00;;;7.70;99.90;;;;;;5050733;28;20812;-71
2021/05/02 03:20:56;;;;;;;72.03;65.57;;;7.70;99.90;;;;;;5050469;28;20478;-71
2021/05/02 03:23:31;;;;;;;72.70;66.03;;;7.80;99.90;;;;;;5030608;28;20460;-70
2021/05/02 03:26:00;;;;;;;74.17;67.13;;;7.70;99.90;;;;;;5030555;28;20445;-70
2021/05/02 03:28:33;;;;;;;74.87;68.13;;;7.70;99.90;;;;;;5030442;28;20498;-71
2021/05/02 03:31:01;;;;;;;78.23;70.70;;;7.70;99.90;;;;;;5030574;28;20452;-73
2021/05/02 03:33:33;;;;;;;74.80;68.07;;;7.70;99.90;;;;;;5030565;28;20484;-72
2021/05/02 03:36:00;;;;;;;72.43;65.87;;;7.70;99.90;;;;;;5030428;28;20489;-72
2021/05/02 03:38:34;;;;;;;73.37;66.60;;;7.70;99.90;;;;;;5030395;28;20485;-71
2021/05/02 03:41:01;;;;;;;74.10;67.50;;;7.70;99.90;;;;;;5030453;28;20456;-71
2021/05/02 03:43:27;;;;;;;76.53;70.00;;;7.80;99.90;;;;;;5030228;28;20971;-70
2021/05/02 03:45:53;;;;;;;74.00;67.17;;;7.70;99.90;;;;;;5030356;28;20453;-70
2021/05/02 03:48:20;;;;;;;73.90;67.77;;;7.70;99.90;;;;;;5030350;28;20482;-71
2021/05/02 03:50:46;;;;;;;72.30;65.80;;;7.70;99.90;;;;;;5030332;28;20958;-71
2021/05/02 03:53:12;;;;;;;74.37;68.00;;;7.70;99.90;;;;;;5030158;28;20452;-71
2021/05/02 03:55:44;;;;;;;72.47;66.07;;;7.80;99.90;;;;;;5030270;28;20489;-72
2021/05/02 03:58:11;;;;;;;72.90;66.03;;;7.80;99.90;;;;;;5030135;28;20507;-71
2021/05/02 04:00:38;;;;;;;70.70;64.40;;;7.90;99.90;;;;;;5030166;28;20671;-71
2021/05/02 04:03:05;;;;;;;73.93;67.23;;;7.80;99.90;;;;;;5030365;28;20441;-71
2021/05/02 04:05:31;;;;;;;73.67;67.00;;;7.80;99.90;;;;;;5030032;28;20495;-71
2021/05/02 04:07:57;;;;;;;74.50;67.40;;;7.80;99.90;;;;;;5030061;28;20539;-71
2021/05/02 04:10:24;;;;;;;72.93;66.60;;;7.80;99.90;;;;;;5030014;28;20476;-71
2021/05/02 04:12:51;;;;;;;72.87;66.13;;;7.90;99.90;;;;;;5030094;28;20470;-71
2021/05/02 04:15:18;;;;;;;72.97;66.90;;;8.00;99.90;;;;;;5030163;28;20452;-72
2021/05/02 04:17:44;;;;;;;73.57;67.03;;;8.00;99.90;;;;;;5030824;28;20452;-73
2021/05/02 04:20:12;;;;;;;74.47;67.87;;;8.00;99.90;;;;;;5033890;28;20657;-72
2021/05/02 04:22:39;;;;;;;71.10;65.10;;;7.90;99.90;;;;;;5033654;28;20483;-72
2021/05/02 04:25:07;;;;;;;75.27;68.63;;;7.90;99.90;;;;;;5034025;28;20483;-72
2021/05/02 04:27:33;;;;;;;74.87;68.40;;;7.90;99.90;;;;;;5034049;28;20456;-72
2021/05/02 04:30:00;;;;;;;73.30;67.00;;;8.00;99.90;;;;;;5033765;28;20926;-72
2021/05/02 04:32:26;;;;;;;76.00;69.17;;;8.00;99.90;;;;;;5033638;28;20453;-72
2021/05/02 04:34:53;;;;;;;74.90;68.40;;;7.90;99.90;;;;;;5033715;28;20853;-72
2021/05/02 04:37:19;;;;;;;76.00;69.40;;;8.00;99.90;;;;;;5033617;28;20492;-73
2021/05/02 04:39:46;;;;;;;72.57;66.00;;;8.00;99.90;;;;;;5033701;28;20934;-71
2021/05/02 04:42:12;;;;;;;76.77;70.07;;;8.00;99.90;;;;;;5033522;28;20449;-71
2021/05/02 04:44:38;;;;;;;72.13;66.10;;;8.00;99.90;;;;;;5033387;28;20954;-72
2021/05/02 04:47:06;;;;;;;70.30;63.70;;;8.00;99.90;;;;;;5023943;28;20981;-72
2021/05/02 04:49:32;;;;;;;71.80;65.00;;;7.90;99.90;;;;;;5013980;28;20464;-72
2021/05/02 04:51:58;;;;;;;74.67;67.77;;;7.80;99.90;;;;;;5013466;28;20457;-73
2021/05/02 04:54:24;;;;;;;74.40;67.67;;;7.70;99.90;;;;;;5013887;28;20452;-71
2021/05/02 04:56:51;;;;;;;72.30;65.57;;;7.70;99.90;;;;;;5013670;28;20495;-71
2021/05/02 04:59:17;;;;;;;74.43;67.83;;;7.60;99.90;;;;;;5013460;28;20445;-72
2021/05/02 05:01:44;;;;;;;68.53;61.93;;;7.60;99.90;;;;;;5013303;28;20450;-71
2021/05/02 05:04:11;;;;;;;69.90;62.97;;;7.60;99.90;;;;;;5013578;28;20457;-71
2021/05/02 05:06:37;;;;;;;71.80;64.30;;;7.60;99.90;;;;;;5013333;28;20445;-71
2021/05/02 05:09:05;;;;;;;68.37;61.67;;;7.60;99.90;;;;;;5013341;28;20944;-70
2021/05/02 05:11:32;;;;;;;71.43;64.33;;;7.80;99.90;;;;;;5013449;28;20454;-71
2021/05/02 05:13:58;;;;;;;65.73;59.77;;;7.90;99.90;;;;;;5013186;28;20453;-72
2021/05/02 05:16:24;;;;;;;65.40;59.50;;;8.00;99.90;;;;;;5013262;28;20492;-72
2021/05/02 05:18:50;;;;;;;67.23;60.63;;;8.00;99.90;;;;;;5013250;28;20449;-72
2021/05/02 05:21:17;;;;;;;63.50;57.63;;;8.10;99.90;;;;;;5016538;28;20491;-71
2021/05/02 05:23:44;;;;;;;68.20;61.87;;;8.00;99.90;;;;;;5033012;28;20464;-70
2021/05/02 05:26:10;;;;;;;67.63;61.13;;;8.10;99.90;;;;;;5032782;28;21001;-71
2021/05/02 05:28:36;;;;;;;66.67;60.63;;;8.00;99.90;;;;;;5032847;28;20457;-71
2021/05/02 05:31:02;;;;;;;66.37;60.33;;;8.00;99.90;;;;;;5033023;28;20447;-71
2021/05/02 05:33:30;;;;;;;65.13;59.20;;;8.10;99.90;;;;;;5032482;28;20457;-70
2021/05/02 05:35:56;;;;;;;64.87;59.17;;;8.10;99.90;;;;;;5032544;28;20483;-70
2021/05/02 05:38:24;;;;;;;62.63;56.57;;;8.10;99.90;;;;;;5032590;28;20847;-70
2021/05/02 05:40:50;;;;;;;62.03;56.73;;;8.10;99.90;;;;;;5032868;28;20445;-70
2021/05/02 05:43:17;;;;;;;62.47;56.77;;;8.00;99.90;;;;;;5032591;28;20444;-70
2021/05/02 05:45:44;;;;;;;58.60;53.40;;;8.20;99.90;;;;;;5032694;28;20468;-70
2021/05/02 05:48:10;;;;;;;58.33;52.57;;;8.10;99.90;;;;;;5032270;28;20449;-70
2021/05/02 05:50:36;;;;;;;60.33;54.90;;;8.10;99.90;;;;;;5032393;28;20935;-71
2021/05/02 05:53:02;;;;;;;56.83;51.47;;;8.20;99.90;;;;;;5032306;28;20454;-71
2021/05/02 05:55:30;;;;;;;56.20;51.30;;;8.30;99.90;;;;;;5032374;28;21009;-71
2021/05/02 05:57:56;;;;;;;55.70;50.13;;;8.40;99.90;;;;;;5032355;28;20453;-71
2021/05/02 06:00:23;;;;;;;57.03;52.03;;;8.50;99.90;;;;;;5031874;28;20449;-71
2021/05/02 06:02:50;;;;;;;53.20;48.77;;;8.60;99.90;;;;;;5032419;28;20947;-71
2021/05/02 06:05:16;;;;;;;53.20;48.50;;;8.60;99.90;;;;;;5032420;28;20451;-71
2021/05/02 06:07:44;;;;;;;55.50;50.50;;;8.60;99.90;;;;;;5032290;28;20457;-71
2021/05/02 06:10:11;;;;;;;50.63;45.80;;;8.80;99.90;;;;;;5032120;28;21076;-71
2021/05/02 06:12:38;;;;;;;48.80;44.40;;;8.80;99.90;;;;;;5031858;28;20464;-71
2021/05/02 06:15:06;;;;;;;48.60;44.47;;;8.70;99.90;;;;;;5032139;28;20461;-71
2021/05/02 06:17:32;;;;;;;49.87;44.97;;;9.00;99.90;;;;;;5031957;28;20488;-71
2021/05/02 06:19:59;;;;;;;47.60;43.30;;;9.30;99.90;;;;;;5031792;28;20479;-72
2021/05/02 06:22:25;;;;;;;47.37;43.03;;;9.60;99.90;;;;;;5031420;28;20616;-71
2021/05/02 06:24:51;;;;;;;43.80;39.63;;;9.90;99.90;;;;;;5032100;28;20862;-72
2021/05/02 06:27:17;;;;;;;41.40;37.50;;;10.00;99.90;;;;;;5032303;28;20444;-72
2021/05/02 06:29:44;;;;;;;40.80;37.27;;;10.20;99.90;;;;;;5032201;28;20445;-72
2021/05/02 06:32:11;;;;;;;36.37;33.23;;;10.60;99.90;;;;;;5032213;28;20449;-72
2021/05/02 06:34:37;;;;;;;36.57;33.57;;;10.70;99.90;;;;;;5031660;28;20455;-72
2021/05/02 06:37:03;;;;;;;36.77;33.70;;;10.70;99.90;;;;;;5031936;28;20492;-72
2021/05/02 06:39:30;;;;;;;37.03;33.97;;;10.70;99.90;;;;;;5031924;28;20452;-72
2021/05/02 06:41:56;;;;;;;36.27;33.27;;;10.60;99.90;;;;;;5031110;28;20457;-71
2021/05/02 06:44:22;;;;;;;35.10;32.13;;;10.60;99.90;;;;;;5031659;28;20511;-71
2021/05/02 06:46:49;;;;;;;36.20;33.07;;;10.80;99.90;;;;;;5031952;28;20447;-72
2021/05/02 06:49:16;;;;;;;33.37;30.50;;;11.20;99.90;;;;;;5031802;28;20986;-72
2021/05/02 06:51:43;;;;;;;35.67;32.80;;;11.40;99.90;;;;;;5031444;28;20471;-72
2021/05/02 06:54:09;;;;;;;33.73;30.87;;;11.60;99.90;;;;;;5031576;28;20485;-72
2021/05/02 06:56:36;;;;;;;34.47;31.70;;;11.70;99.90;;;;;;5031933;28;20487;-72
2021/05/02 06:59:03;;;;;;;34.70;31.50;;;11.70;99.90;;;;;;5031585;28;20460;-72
2021/05/02 07:01:30;;;;;;;34.10;31.33;;;12.00;99.90;;;;;;5031224;28;20460;-71
2021/05/02 07:03:57;;;;;;;32.43;29.83;;;12.30;99.90;;;;;;5031276;28;20551;-72
2021/05/02 07:06:23;;;;;;;31.17;28.80;;;12.70;99.90;;;;;;5031403;28;20942;-71
2021/05/02 07:08:49;;;;;;;31.30;29.20;;;12.90;99.90;;;;;;5031400;28;20459;-72
2021/05/02 07:11:16;;;;;;;31.37;28.97;;;12.70;99.90;;;;;;5031085;28;20821;-71
2021/05/02 07:13:42;;;;;;;31.80;29.20;;;12.90;99.90;;;;;;5031188;28;20461;-71
2021/05/02 07:16:10;;;;;;;29.83;27.43;;;13.10;99.90;;;;;;5030930;28;20835;-71
2021/05/02 07:18:37;;;;;;;30.47;28.27;;;13.10;99.90;;;;;;5031253;28;20449;-72
2021/05/02 07:21:06;;;;;;;27.23;25.23;;;12.70;99.90;;;;;;5030671;28;20512;-72
2021/05/02 07:23:33;;;;;;;29.07;26.97;;;12.60;99.90;;;;;;5031383;28;20547;-71
2021/05/02 07:25:59;;;;;;;28.60;26.60;;;12.50;99.90;;;;;;5031179;28;20820;-72
2021/05/02 07:28:25;;;;;;;30.93;28.53;;;12.50;99.90;;;;;;5030741;28;20461;-71
2021/05/02 07:30:51;;;;;;;29.17;26.87;;;12.80;99.90;;;;;;5030992;28;20445;-71
2021/05/02 07:33:18;;;;;;;28.00;25.80;;;13.20;99.90;;;;;;5030946;28;20453;-71
2021/05/02 07:35:47;;;;;;;26.90;24.80;;;13.60;99.90;;;;;;5030856;28;20476;-72
2021/05/02 07:38:14;;;;;;;26.97;25.07;;;14.20;99.90;;;;;;5030720;28;20460;-73
2021/05/02 07:40:40;;;;;;;25.27;23.33;;;14.40;99.90;;;;;;5030750;28;21038;-70
2021/05/02 07:43:06;;;;;;;25.93;24.13;;;14.70;99.90;;;;;;5030924;28;20515;-71
2021/05/02 07:45:32;;;;;;;25.70;23.90;;;14.80;99.90;;;;;;5030857;28;20827;-72
2021/05/02 07:47:59;;;;;;;26.67;24.87;;;15.60;99.90;;;;;;5030772;28;20448;-72
2021/05/02 07:50:25;;;;;;;24.73;23.10;;;16.20;99.20;;;;;;5030636;28;20460;-72
2021/05/02 07:52:51;;;;;;;23.50;21.80;;;16.50;99.40;;;;;;5029834;28;20453;-72
2021/05/02 07:55:18;;;;;;;23.93;22.27;;;16.60;98.10;;;;;;5030822;28;20472;-72
2021/05/02 07:57:44;;;;;;;24.83;23.13;;;16.50;98.30;;;;;;5030733;28;20822;-71
2021/05/02 08:00:12;;;;;;;23.37;22.03;;;17.00;98.40;;;;;;5030862;28;20448;-72
2021/05/02 08:02:40;;;;;;;24.17;22.57;;;17.50;96.20;;;;;;5030783;28;20453;-72
2021/05/02 08:05:08;;;;;;;24.10;22.43;;;17.80;96.50;;;;;;5030815;28;20461;-72
2021/05/02 08:07:34;;;;;;;23.00;21.60;;;17.10;96.90;;;;;;5030509;28;20457;-74
2021/05/02 08:10:01;;;;;;;23.47;21.83;;;17.20;97.30;;;;;;5030455;28;20445;-71
2021/05/02 08:12:28;;;;;;;24.60;22.43;;;16.80;95.80;;;;;;5030439;28;20457;-74
2021/05/02 08:14:54;;;;;;;23.83;22.13;;;16.60;96.00;;;;;;5030601;28;20655;-75
2021/05/02 08:17:21;;;;;;;22.80;21.30;;;16.60;95.60;;;;;;5030281;28;20491;-73
2021/05/02 08:19:47;;;;;;;23.27;21.60;;;15.90;97.20;;;;;;5030308;28;20453;-73
2021/05/02 08:22:14;;;;;;;21.30;20.00;;;15.70;97.40;;;;;;5030075;28;20484;-72
2021/05/02 08:24:40;;;;;;;23.83;22.33;;;15.40;96.40;;;;;;5030158;28;20453;-74
2021/05/02 08:27:06;;;;;;;23.60;22.00;;;15.40;96.60;;;;;;5030117;28;20935;-73
2021/05/02 08:29:33;;;;;;;22.57;21.17;;;15.30;98.00;;;;;;5039769;28;20450;-73
2021/05/02 08:32:00;;;;;;;23.13;21.60;;;16.00;96.80;;;;;;5052148;28;20471;-73
2021/05/02 08:34:26;;;;;;;22.50;21.00;;;16.50;93.90;;;;;;5055074;28;20456;-73
2021/05/02 08:36:52;;;;;;;23.20;21.50;;;16.80;93.10;;;;;;5066256;28;20486;-74
2021/05/02 08:39:18;;;;;;;22.70;21.17;;;17.00;92.10;;;;;;5057968;28;20452;-72
2021/05/02 08:41:44;;;;;;;22.37;20.77;;;17.60;92.40;;;;;;5048593;28;20452;-72
2021/05/02 08:44:11;;;;;;;23.80;22.20;;;17.40;90.90;;;;;;5058151;28;20996;-72
2021/05/02 08:46:39;;;;;;;23.67;22.07;;;17.20;92.00;;;;;;5069517;28;20470;-72
2021/05/02 08:49:05;;;;;;;23.40;21.90;;;17.20;91.20;;;;;;5069019;28;20508;-72
2021/05/02 08:51:32;;;;;;;23.73;22.23;;;16.70;91.40;;;;;;5069477;28;20447;-72
2021/05/02 08:53:58;;;;;;;23.77;22.07;;;16.70;90.70;;;;;;5069545;28;20538;-72
2021/05/02 08:56:24;;;;;;;23.87;22.07;;;16.80;89.80;;;;;;5049632;28;20488;-72
2021/05/02 08:58:51;;;;;;;24.50;22.60;;;17.30;90.30;;;;;;5049373;28;20851;-72
2021/05/02 09:01:26;;;;;;;22.20;20.40;;;17.50;87.50;;;;;;5056514;28;20957;-72
2021/05/02 09:03:53;;;;;;;21.83;20.33;;;17.30;89.40;;;;;;5069829;28;20451;-72
2021/05/02 09:06:21;;;;;;;21.50;20.03;;;17.30;85.70;;;;;;5072387;28;20467;-72
2021/05/02 09:08:49;;;;;;;22.30;20.80;;;16.40;88.60;;;;;;5072674;28;20461;-72
2021/05/02 09:11:16;;;;;;;22.03;20.63;;;16.60;87.50;;;;;;5072267;28;20458;-72
2021/05/02 09:13:48;;;;;;;22.30;20.87;;;17.20;86.20;;;;;;5072250;28;20541;-72
2021/05/02 09:16:14;;;;;;;23.10;21.53;;;18.10;84.30;;;;;;5072129;28;20483;-73
2021/05/02 09:18:45;;;;;;;22.37;20.87;;;19.10;81.50;;;;;;5072347;28;20501;-73
2021/05/02 09:21:18;;;;;;;21.40;20.07;;;19.50;78.50;;;;;;5071819;28;20542;-72
2021/05/02 09:23:45;;;;;;;22.37;20.97;;;19.30;79.30;;;;;;5072158;28;20508;-72
2021/05/02 09:26:23;;;;;;;20.93;19.53;;;18.60;79.00;;;;;;5059635;28;20880;-72
2021/05/02 09:28:50;;;;;;;25.57;23.67;;;17.80;80.40;;;;;;5039300;28;20514;-72
2021/05/02 09:31:18;;;;;;;22.07;20.50;;;17.50;82.10;;;;;;5032033;28;20467;-71
2021/05/02 09:33:45;;;;;;;21.87;20.27;;;17.00;84.40;;;;;;5032265;28;20456;-71
2021/05/02 09:36:13;;;;;;;23.50;22.00;;;16.80;84.50;;;;;;5031720;28;21030;-71
2021/05/02 09:38:42;;;;;;;23.53;21.87;;;17.10;83.70;;;;;;5031781;28;20463;-71
2021/05/02 09:41:10;;;;;;;22.73;21.00;;;17.20;82.60;;;;;;5031651;28;20460;-71
2021/05/02 09:43:47;;;;;;;23.73;21.93;;;16.70;81.70;;;;;;5031945;28;20448;-71
2021/05/02 09:46:25;;;;;;;23.93;22.40;;;16.30;82.70;;;;;;5031822;28;20452;-71
2021/05/02 09:49:02;;;;;;;23.37;21.53;;;16.80;80.80;;;;;;5031910;28;20499;-72
2021/05/02 09:51:31;;;;;;;22.87;21.13;;;17.20;80.20;;;;;;5031505;28;20448;-72
2021/05/02 09:54:09;;;;;;;23.23;21.63;;;17.50;80.80;;;;;;5031522;28;20934;-71
2021/05/02 09:56:38;;;;;;;24.47;22.83;;;17.50;80.90;;;;;;5031893;28;20488;-71
2021/05/02 09:59:06;;;;;;;24.10;22.50;;;17.10;80.80;;;;;;5031694;28;20510;-71
2021/05/02 10:01:32;;;;;;;22.73;21.23;;;16.40;79.80;;;;;;5031611;28;20476;-71
2021/05/02 10:04:00;;;;;;;26.17;23.70;;;15.90;82.40;;;;;;5031454;28;20445;-72
2021/05/02 10:06:32;;;;;;;25.27;23.57;;;15.50;85.80;;;;;;5031262;28;20500;-71
2021/05/02 10:09:00;;;;;;;25.63;23.73;;;14.70;86.10;;;;;;5031678;28;20457;-71
2021/05/02 10:11:28;;;;;;;24.77;22.97;;;14.40;86.60;;;;;;5031155;28;20445;-71
2021/05/02 10:13:55;;;;;;;25.00;23.20;;;14.20;88.50;;;;;;5031329;28;20449;-71
2021/05/02 10:16:22;;;;;;;24.07;22.00;;;14.30;89.60;;;;;;5030134;28;20535;-72
2021/05/02 10:18:49;;;;;;;23.27;21.57;;;14.50;88.80;;;;;;5031492;28;20457;-72
2021/05/02 10:21:15;;;;;;;23.67;21.77;;;14.80;88.90;;;;;;5030891;28;20994;-71
2021/05/02 10:23:42;;;;;;;23.30;21.70;;;15.00;88.60;;;;;;5030971;28;20464;-71
2021/05/02 10:26:09;;;;;;;24.00;22.50;;;15.10;87.70;;;;;;5030788;28;20487;-71
2021/05/02 10:28:37;;;;;;;24.70;22.90;;;16.20;86.60;;;;;;5031342;28;20962;-71
2021/05/02 10:31:05;;;;;;;25.13;23.33;;;16.80;83.40;;;;;;5031137;28;20925;-71
2021/05/02 10:33:33;;;;;;;23.43;21.50;;;16.20;82.90;;;;;;5031007;28;20455;-71
2021/05/02 10:36:02;;;;;;;22.90;21.57;;;15.80;82.50;;;;;;5030613;28;20485;-71
2021/05/02 10:38:52;;;;;;;23.83;22.07;;;16.70;80.90;;;;;;5030589;28;20468;-71
2021/05/02 10:41:37;;;;;;;24.37;22.77;;;17.30;78.10;;;;;;5030552;28;20457;-70
2021/05/02 10:44:31;;;;;;;23.07;21.67;;;17.60;75.60;;;;;;5030914;28;20456;-70
2021/05/02 10:46:57;;;;;;;26.33;24.47;;;17.10;75.80;;;;;;5030750;28;20503;-70
2021/05/02 10:49:57;;;;;;;28.00;26.00;;;16.60;79.10;;;;;;5030018;28;20453;-70
2021/05/02 10:52:59;;;;;;;27.23;25.10;;;16.50;81.30;;;;;;5030375;28;20453;-70
2021/05/02 10:55:44;;;;;;;26.67;24.77;;;16.60;81.20;;;;;;5030382;28;20794;-70
2021/05/02 10:58:18;;;;;;;25.03;23.30;;;16.20;82.00;;;;;;5030064;28;20449;-70
2021/05/02 11:00:50;;;;;;;25.23;23.50;;;16.30;81.60;;;;;;5030691;28;20456;-70
2021/05/02 11:03:52;;;;;;;25.40;23.50;;;16.60;80.00;;;;;;5030437;28;20456;-71
2021/05/02 11:07:00;;;;;;;25.73;23.80;;;17.30;79.70;;;;;;5030276;28;20460;-70
2021/05/02 11:09:29;;;;;;;25.13;23.17;;;17.80;75.40;;;;;;5030463;28;20459;-70
2021/05/02 11:11:57;;;;;;;26.20;24.27;;;17.90;75.40;;;;;;5029840;28;20449;-70
2021/05/02 11:14:35;;;;;;;25.70;23.90;;;18.40;75.50;;;;;;5029881;28;20449;-70
2021/05/02 11:17:28;;;;;;;24.70;22.67;;;17.90;75.00;;;;;;5030376;28;20546;-73
2021/05/02 11:19:56;;;;;;;26.37;24.47;;;17.70;74.80;;;;;;5029956;28;20567;-70
2021/05/02 11:22:23;;;;;;;24.73;23.03;;;17.50;78.10;;;;;;5029836;28;20572;-70
2021/05/02 11:25:10;;;;;;;22.93;21.30;;;17.40;77.00;;;;;;5030573;28;20551;-71
2021/05/02 11:28:02;;;;;;;25.20;23.53;;;17.40;77.00;;;;;;5030313;28;20912;-71
2021/05/02 11:30:31;;;;;;;26.70;24.80;;;16.90;77.10;;;;;;5030395;28;20460;-70
2021/05/02 11:32:59;;;;;;;26.43;24.53;;;16.50;77.60;;;;;;5030301;28;20877;-71
2021/05/02 11:35:57;;;;;;;25.23;23.33;;;16.10;78.90;;;;;;5029893;28;20518;-71
2021/05/02 11:38:47;;;;;;;25.07;23.20;;;15.90;81.10;;;;;;5030093;28;20460;-71
2021/05/02 11:41:13;;;;;;;26.93;24.83;;;15.40;82.10;;;;;;5042352;28;20467;-70
2021/05/02 11:43:44;;;;;;;44.50;41.33;;;14.10;91.30;;;;;;5061240;28;20518;-74
2021/05/02 11:46:19;;;;;;;52.93;49.20;;;12.80;99.80;;;;;;5056807;28;20446;-74
2021/05/02 11:48:50;;;;;;;56.83;52.70;;;11.80;99.90;;;;;;5050885;28;20495;-74
2021/05/02 11:51:19;;;;;;;60.60;56.40;;;11.10;99.90;;;;;;5070265;28;20451;-75
2021/05/02 11:53:48;;;;;;;56.97;53.00;;;10.50;99.90;;;;;;5062877;28;20448;-75
2021/05/02 11:56:17;;;;;;;59.03;54.73;;;10.50;99.90;;;;;;5048657;28;20488;-74
2021/05/02 11:58:44;;;;;;;56.53;52.43;;;10.70;99.90;;;;;;5049910;28;20451;-74
2021/05/02 12:01:15;;;;;;;48.40;45.30;;;11.10;99.90;;;;;;5050011;28;20451;-74
2021/05/02 12:03:44;;;;;;;43.90;41.00;;;11.50;99.90;;;;;;5050009;28;20452;-74
2021/05/02 12:06:21;;;;;;;36.57;34.10;;;12.40;99.90;;;;;;5049506;28;20476;-74
2021/05/02 12:08:47;;;;;;;32.50;30.20;;;13.90;99.90;;;;;;5050034;28;20448;-74
2021/05/02 12:11:13;;;;;;;28.37;26.47;;;15.80;99.90;;;;;;5050224;28;20444;-74
2021/05/02 12:13:43;;;;;;;29.87;28.00;;;17.50;97.60;;;;;;5049538;28;20745;-75
2021/05/02 12:16:10;;;;;;;28.13;26.43;;;19.00;99.90;;;;;;5049754;28;20595;-76
2021/05/02 12:18:48;;;;;;;23.50;22.20;;;19.50;95.40;;;;;;5049902;28;20861;-74
2021/05/02 12:21:18;;;;;;;25.17;23.67;;;19.10;92.80;;;;;;5049634;28;20498;-76
2021/05/02 12:23:45;;;;;;;22.00;20.90;;;19.60;94.90;;;;;;5050101;28;20452;-75
2021/05/02 12:26:13;;;;;;;22.00;20.70;;;19.40;92.10;;;;;;5049812;28;20451;-74
2021/05/02 12:28:40;;;;;;;21.80;20.53;;;18.30;92.00;;;;;;5049752;28;20452;-73
2021/05/02 12:31:07;;;;;;;21.27;20.00;;;17.30;91.90;;;;;;5049846;28;21007;-73
2021/05/02 12:33:35;;;;;;;23.40;22.00;;;16.60;92.50;;;;;;5050039;28;20509;-73
2021/05/02 12:36:03;;;;;;;24.20;22.60;;;15.50;95.90;;;;;;5049840;28;20448;-72
2021/05/02 12:38:31;;;;;;;24.50;22.90;;;14.90;96.40;;;;;;5044898;28;20939;-72
2021/05/02 12:40:58;;;;;;;23.03;21.43;;;14.00;96.00;;;;;;4987798;28;20466;-72
2021/05/02 12:43:26;;;;;;;23.67;22.17;;;13.40;97.60;;;;;;4994381;28;20450;-71
2021/05/02 12:45:53;;;;;;;23.20;21.80;;;13.00;99.90;;;;;;4994324;28;20459;-73
2021/05/02 12:48:30;;;;;;;19.90;18.70;;;12.60;99.90;;;;;;4994228;28;20975;-72
2021/05/02 12:50:58;;;;;;;17.73;16.73;;;12.00;99.90;;;;;;4992860;28;20469;-74
2021/05/02 12:53:42;;;;;;;15.83;15.03;;;11.80;99.90;;;;;;4993997;28;20454;-71
2021/05/02 12:56:10;;;;;;;14.30;13.60;;;11.90;99.90;;;;;;4993578;28;20465;-72
2021/05/02 12:58:39;;;;;;;14.53;13.70;;;12.50;99.90;;;;;;4994193;28;20811;-72
2021/05/02 13:01:14;;;;;;;13.50;12.83;;;14.30;99.90;;;;;;4994276;28;20450;-73
2021/05/02 13:03:42;;;;;;;14.00;13.30;;;16.30;97.50;;;;;;4993916;28;20692;-73
2021/05/02 13:06:10;;;;;;;12.57;12.07;;;17.30;93.00;;;;;;4993959;28;20455;-73
2021/05/02 13:08:38;;;;;;;12.83;12.23;;;18.40;90.40;;;;;;4993981;28;20458;-72
2021/05/02 13:11:24;;;;;;;15.00;14.20;;;18.40;86.30;;;;;;4994061;28;20451;-73
2021/05/02 13:14:13;;;;;;;15.77;15.00;;;18.30;90.10;;;;;;4993651;28;20463;-73
2021/05/02 13:16:40;;;;;;;16.90;15.90;;;17.10;88.70;;;;;;4993596;28;21023;-71
2021/05/02 13:19:06;;;;;;;17.03;16.10;;;17.20;90.60;;;;;;4993754;28;20540;-71
2021/05/02 13:21:33;;;;;;;17.80;16.80;;;17.70;89.90;;;;;;4993525;28;20489;-71
2021/05/02 13:24:07;;;;;;;19.00;17.90;;;17.80;90.70;;;;;;4993608;28;20454;-72
2021/05/02 13:26:41;;;;;;;19.27;17.97;;;18.60;88.80;;;;;;4993835;28;20462;-71
2021/05/02 13:29:15;;;;;;;20.47;19.27;;;18.50;85.30;;;;;;4993635;28;20461;-72
2021/05/02 13:31:46;;;;;;;19.70;18.53;;;18.90;86.90;;;;;;4993209;28;20502;-72
2021/05/02 13:34:14;;;;;;;18.17;17.20;;;19.30;85.90;;;;;;4993235;28;20454;-71
2021/05/02 13:36:43;;;;;;;17.23;16.33;;;18.70;82.30;;;;;;4993189;28;20856;-71
2021/05/02 13:39:10;;;;;;;17.10;16.20;;;18.10;81.00;;;;;;4993233;28;20489;-71
2021/05/02 13:41:36;;;;;;;17.80;16.90;;;17.60;83.30;;;;;;5008779;28;20959;-71
2021/05/02 13:44:09;;;;;;;17.00;16.10;;;18.10;81.60;;;;;;5012710;28;20454;-72
2021/05/02 13:46:37;;;;;;;16.80;16.00;;;17.70;81.00;;;;;;5012677;28;21066;-71
2021/05/02 13:49:04;;;;;;;15.10;14.40;;;17.80;81.30;;;;;;5012571;28;20458;-71
2021/05/02 13:51:30;;;;;;;15.43;14.70;;;17.70;83.00;;;;;;5011435;28;20450;-71
2021/05/02 13:53:57;;;;;;;14.70;14.00;;;18.10;80.10;;;;;;5012427;28;20464;-71
2021/05/02 13:56:24;;;;;;;15.90;15.00;;;18.70;77.40;;;;;;5012254;28;20478;-71
2021/05/02 13:58:50;;;;;;;14.57;13.80;;;18.50;76.60;;;;;;5012586;28;20813;-72
2021/05/02 14:01:18;;;;;;;14.50;13.80;;;18.10;76.50;;;;;;5012545;28;20465;-71
2021/05/02 14:03:44;;;;;;;15.60;14.70;;;17.60;78.10;;;;;;5012012;28;20477;-72
2021/05/02 14:06:11;;;;;;;16.27;15.37;;;17.50;78.80;;;;;;5012181;28;20465;-71
2021/05/02 14:08:37;;;;;;;15.73;14.83;;;17.10;78.30;;;;;;5011552;28;20458;-71
2021/05/02 14:11:04;;;;;;;16.00;15.10;;;16.40;82.10;;;;;;5011372;28;20450;-71
2021/05/02 14:13:31;;;;;;;16.67;15.60;;;15.80;83.20;;;;;;5012266;28;20457;-71
2021/05/02 14:15:57;;;;;;;17.23;16.10;;;15.40;84.30;;;;;;5011493;28;20952;-70
2021/05/02 14:18:25;;;;;;;16.43;15.63;;;15.50;85.80;;;;;;5011655;28;20482;-71
2021/05/02 14:20:51;;;;;;;16.00;15.00;;;15.00;83.30;;;;;;5011770;28;20474;-72
2021/05/02 14:23:17;;;;;;;17.47;16.33;;;15.10;84.10;;;;;;5012126;28;20457;-72
2021/05/02 14:25:47;;;;;;;16.73;15.73;;;15.10;83.60;;;;;;5012022;28;20528;-71
2021/05/02 14:28:13;;;;;;;16.53;15.40;;;15.30;83.60;;;;;;5011826;28;20449;-71
2021/05/02 14:30:39;;;;;;;16.67;15.57;;;15.40;83.10;;;;;;5011633;28;20457;-71
2021/05/02 14:33:06;;;;;;;16.00;15.10;;;15.70;81.70;;;;;;5011687;28;20450;-71
2021/05/02 14:35:33;;;;;;;16.93;15.93;;;15.80;81.50;;;;;;5011850;28;20461;-71
2021/05/02 14:37:59;;;;;;;17.27;16.27;;;16.00;82.20;;;;;;5004518;28;20506;-71
2021/05/02 14:40:25;;;;;;;17.33;16.33;;;16.50;78.90;;;;;;5000615;28;20450;-71
2021/05/02 14:42:51;;;;;;;16.60;15.70;;;16.80;80.20;;;;;;5011046;28;20453;-71
2021/05/02 14:45:18;;;;;;;17.37;16.30;;;17.10;78.20;;;;;;5009500;28;20470;-71
2021/05/02 14:47:46;;;;;;;16.40;15.50;;;16.50;76.50;;;;;;5000418;28;20524;-71
2021/05/02 14:50:12;;;;;;;17.20;16.20;;;16.40;77.20;;;;;;5000843;28;20445;-70
2021/05/02 14:52:40;;;;;;;17.23;16.13;;;16.30;76.30;;;;;;5011666;28;20870;-72
2021/05/02 14:55:08;;;;;;;16.60;15.70;;;16.40;79.00;;;;;;4997004;28;20458;-72
2021/05/02 14:57:34;;;;;;;17.23;16.13;;;16.60;78.20;;;;;;4991996;28;21004;-72
2021/05/02 15:00:00;;;;;;;16.90;15.93;;;16.50;79.70;;;;;;4992005;28;20963;-70